createdAt,value
2019-01-30T00:00:32.840Z,100.00
2019-01-30T00:03:01.939Z,100.00
2019-01-30T00:05:30.931Z,100.00
2019-01-30T00:07:59.821Z,100.00
2019-01-30T00:10:28.709Z,100.00
2019-01-30T00:12:57.906Z,100.00
2019-01-30T00:15:26.957Z,100.00
2019-01-30T00:17:55.790Z,100.00
2019-01-30T00:20:24.681Z,100.00
2019-01-30T00:22:53.979Z,100.00
2019-01-30T00:25:24.005Z,100.00
2019-01-30T00:27:52.989Z,100.00
2019-01-30T00:30:26.284Z,100.00
2019-01-30T00:32:55.174Z,100.00
2019-01-30T00:35:24.064Z,100.00
2019-01-30T00:37:52.953Z,100.00
2019-01-30T00:40:22.663Z,100.00
2019-01-30T00:42:51.659Z,100.00
2019-01-30T00:45:21.790Z,100.00
2019-01-30T00:47:50.878Z,100.00
2019-01-30T00:50:21.453Z,100.00
2019-01-30T00:52:50.495Z,100.00
2019-01-30T00:55:19.386Z,100.00
2019-01-30T00:57:48.443Z,100.00
2019-01-30T01:00:26.180Z,100.00
2019-01-30T01:02:55.169Z,100.00
2019-01-30T01:05:24.264Z,100.00
2019-01-30T01:07:53.566Z,100.00
2019-01-30T01:10:22.848Z,100.00
2019-01-30T01:12:51.653Z,100.00
2019-01-30T01:15:20.650Z,100.00
2019-01-30T01:17:49.534Z,100.00
2019-01-30T01:20:22.726Z,100.00
2019-01-30T01:22:51.878Z,100.00
2019-01-30T01:25:20.711Z,100.00
2019-01-30T01:27:49.602Z,100.00
2019-01-30T01:30:29.449Z,100.00
2019-01-30T01:32:58.340Z,100.00
2019-01-30T01:35:27.334Z,100.00
2019-01-30T01:37:56.224Z,100.00
2019-01-30T01:40:25.318Z,100.00
2019-01-30T01:42:54.207Z,100.00
2019-01-30T01:45:25.352Z,100.00
2019-01-30T01:47:54.252Z,100.00
2019-01-30T01:50:23.527Z,100.00
2019-01-30T01:52:52.432Z,100.00
2019-01-30T01:55:21.387Z,100.00
2019-01-30T01:57:50.212Z,100.00
2019-01-30T02:00:34.976Z,100.00
2019-01-30T02:02:56.596Z,100.00
2019-01-30T02:05:25.386Z,100.00
2019-01-30T02:07:54.271Z,100.00
2019-01-30T02:10:24.855Z,100.00
2019-01-30T02:12:53.794Z,100.00
2019-01-30T02:15:23.916Z,100.00
2019-01-30T02:17:53.650Z,100.00
2019-01-30T02:20:25.076Z,100.00
2019-01-30T02:22:54.372Z,100.00
2019-01-30T02:25:23.263Z,100.00
2019-01-30T02:27:52.259Z,100.00
2019-01-30T02:30:23.580Z,100.00
2019-01-30T02:32:53.826Z,100.00
2019-01-30T02:35:23.024Z,100.00
2019-01-30T02:37:52.148Z,100.00
2019-01-30T02:40:23.061Z,100.00
2019-01-30T02:42:51.955Z,100.00
2019-01-30T02:45:23.513Z,100.00
2019-01-30T02:47:52.697Z,100.00
2019-01-30T02:50:21.791Z,100.00
2019-01-30T02:52:51.026Z,100.00
2019-01-30T02:55:20.392Z,100.00
2019-01-30T02:57:49.386Z,100.00
2019-01-30T03:00:20.938Z,100.00
2019-01-30T03:02:49.933Z,100.00
2019-01-30T03:05:18.924Z,100.00
2019-01-30T03:07:48.185Z,100.00
2019-01-30T03:10:19.057Z,100.00
2019-01-30T03:12:47.947Z,100.00
2019-01-30T03:15:18.478Z,100.00
2019-01-30T03:17:47.411Z,100.00
2019-01-30T03:20:27.525Z,100.00
2019-01-30T03:22:56.536Z,100.00
2019-01-30T03:25:26.738Z,100.00
2019-01-30T03:27:55.730Z,100.00
2019-01-30T03:30:29.998Z,100.00
2019-01-30T03:32:59.353Z,100.00
2019-01-30T03:35:29.202Z,100.00
2019-01-30T03:37:58.049Z,100.00
2019-01-30T03:40:26.943Z,100.00
2019-01-30T03:42:55.828Z,100.00
2019-01-30T03:45:25.313Z,100.00
2019-01-30T03:47:54.329Z,100.00
2019-01-30T03:50:23.216Z,100.00
2019-01-30T03:52:52.109Z,100.00
2019-01-30T03:55:21.715Z,100.00
2019-01-30T03:57:50.604Z,100.00
2019-01-30T04:00:21.492Z,100.00
2019-01-30T04:02:51.021Z,100.00
2019-01-30T04:05:20.005Z,100.00
2019-01-30T04:07:48.825Z,100.00
2019-01-30T04:10:20.163Z,100.00
2019-01-30T04:12:48.971Z,100.00
2019-01-30T04:15:18.063Z,100.00
2019-01-30T04:17:47.157Z,100.00
2019-01-30T04:20:19.042Z,100.00
2019-01-30T04:22:48.087Z,100.00
2019-01-30T04:25:17.205Z,100.00
2019-01-30T04:27:46.097Z,100.00
2019-01-30T04:30:23.691Z,100.00
2019-01-30T04:32:52.582Z,100.00
2019-01-30T04:35:21.576Z,100.00
2019-01-30T04:37:50.405Z,100.00
2019-01-30T04:40:22.837Z,100.00
2019-01-30T04:42:51.728Z,100.00
2019-01-30T04:45:25.428Z,100.00
2019-01-30T04:47:54.325Z,100.00
2019-01-30T04:50:23.282Z,100.00
2019-01-30T04:52:52.512Z,100.00
2019-01-30T04:55:21.502Z,100.00
2019-01-30T04:57:50.597Z,100.00
2019-01-30T05:00:24.504Z,100.00
2019-01-30T05:02:53.428Z,100.00
2019-01-30T05:05:22.401Z,100.00
2019-01-30T05:07:51.440Z,100.00
2019-01-30T05:10:20.580Z,100.00
2019-01-30T05:12:49.470Z,100.00
2019-01-30T05:15:20.142Z,100.00
2019-01-30T05:17:49.002Z,100.00
2019-01-30T05:20:19.784Z,100.00
2019-01-30T05:22:49.029Z,100.00
2019-01-30T05:25:17.977Z,100.00
2019-01-30T05:27:47.083Z,100.00
2019-01-30T05:30:24.810Z,100.00
2019-01-30T05:32:53.705Z,100.00
2019-01-30T05:35:22.588Z,100.00
2019-01-30T05:37:51.718Z,100.00
2019-01-30T05:40:22.201Z,100.00
2019-01-30T05:42:51.000Z,100.00
2019-01-30T05:45:20.325Z,100.00
2019-01-30T05:47:49.190Z,100.00
2019-01-30T05:50:18.183Z,100.00
2019-01-30T05:52:47.175Z,100.00
2019-01-30T05:55:17.263Z,100.00
2019-01-30T05:57:46.084Z,100.00
2019-01-30T06:00:27.674Z,100.00
2019-01-30T06:02:56.460Z,100.00
2019-01-30T06:05:25.458Z,100.00
2019-01-30T06:07:54.344Z,100.00
2019-01-30T06:10:23.335Z,100.00
2019-01-30T06:12:52.226Z,100.00
2019-01-30T06:15:21.505Z,100.00
2019-01-30T06:17:50.322Z,100.00
2019-01-30T06:20:21.977Z,100.00
2019-01-30T06:22:51.053Z,100.00
2019-01-30T06:25:19.961Z,100.00
2019-01-30T06:27:48.948Z,100.00
2019-01-30T06:30:20.158Z,100.00
2019-01-30T06:32:49.085Z,100.00
2019-01-30T06:35:18.562Z,100.00
2019-01-30T06:37:47.477Z,100.00
2019-01-30T06:40:24.892Z,100.00
2019-01-30T06:42:53.858Z,100.00
2019-01-30T06:45:22.954Z,100.00
2019-01-30T06:47:51.844Z,100.00
2019-01-30T06:50:21.145Z,100.00
2019-01-30T06:52:50.135Z,100.00
2019-01-30T06:55:18.924Z,100.00
2019-01-30T06:57:47.816Z,100.00
2019-01-30T07:00:25.382Z,100.00
2019-01-30T07:02:55.277Z,100.00
2019-01-30T07:05:24.521Z,100.00
2019-01-30T07:07:53.313Z,100.00
2019-01-30T07:10:24.248Z,100.00
2019-01-30T07:12:53.445Z,100.00
2019-01-30T07:15:22.744Z,100.00
2019-01-30T07:17:51.847Z,97.10
2019-01-30T07:20:20.948Z,95.50
2019-01-30T07:22:49.834Z,93.95
2019-01-30T07:25:20.658Z,93.19
2019-01-30T07:27:49.740Z,92.92
2019-01-30T07:30:35.050Z,91.24
2019-01-30T07:33:04.126Z,89.05
2019-01-30T07:35:33.225Z,89.46
2019-01-30T07:38:02.112Z,87.93
2019-01-30T07:40:31.003Z,88.76
2019-01-30T07:42:59.789Z,86.10
2019-01-30T07:45:29.299Z,86.28
2019-01-30T07:47:58.200Z,85.46
2019-01-30T07:50:27.184Z,83.18
2019-01-30T07:52:58.761Z,82.40
2019-01-30T07:55:28.031Z,81.97
2019-01-30T07:57:57.053Z,80.83
2019-01-30T08:00:28.375Z,79.15
2019-01-30T08:02:57.366Z,81.71
2019-01-30T08:05:27.499Z,81.69
2019-01-30T08:07:56.456Z,79.97
2019-01-30T08:10:26.923Z,79.97
2019-01-30T08:12:58.282Z,80.85
2019-01-30T08:15:27.564Z,80.82
2019-01-30T08:17:57.693Z,80.78
2019-01-30T08:20:26.686Z,83.11
2019-01-30T08:22:55.553Z,83.59
2019-01-30T08:25:24.998Z,83.44
2019-01-30T08:27:54.344Z,85.23
2019-01-30T08:30:28.808Z,83.94
2019-01-30T08:33:04.573Z,83.72
2019-01-30T08:35:30.900Z,84.21
2019-01-30T08:37:59.853Z,83.71
2019-01-30T08:40:28.845Z,84.92
2019-01-30T08:42:57.839Z,83.42
2019-01-30T08:45:28.777Z,84.65
2019-01-30T08:47:57.773Z,84.64
2019-01-30T08:50:26.855Z,85.39
2019-01-30T08:52:56.166Z,86.25
2019-01-30T08:55:25.057Z,86.34
2019-01-30T08:57:54.132Z,85.34
2019-01-30T09:00:25.502Z,85.55
2019-01-30T09:02:56.574Z,85.17
2019-01-30T09:05:25.882Z,83.79
2019-01-30T09:07:55.298Z,82.15
2019-01-30T09:10:26.590Z,82.47
2019-01-30T09:12:55.693Z,83.42
2019-01-30T09:15:27.763Z,80.74
2019-01-30T09:17:56.745Z,80.99
2019-01-30T09:20:26.423Z,80.86
2019-01-30T09:22:55.356Z,79.47
2019-01-30T09:25:26.041Z,80.15
2019-01-30T09:27:54.865Z,79.87
2019-01-30T09:30:26.429Z,79.97
2019-01-30T09:32:55.767Z,80.83
2019-01-30T09:35:25.743Z,79.56
2019-01-30T09:37:55.244Z,78.95
2019-01-30T09:40:24.485Z,79.08
2019-01-30T09:42:53.635Z,77.71
2019-01-30T09:45:23.858Z,76.62
2019-01-30T09:47:52.747Z,76.57
2019-01-30T09:50:23.662Z,77.04
2019-01-30T09:52:53.707Z,77.32
2019-01-30T09:55:23.518Z,78.14
2019-01-30T09:57:52.416Z,77.73
2019-01-30T10:00:35.120Z,76.42
2019-01-30T10:03:04.216Z,75.62
2019-01-30T10:05:33.209Z,76.09
2019-01-30T10:08:02.098Z,76.10
2019-01-30T10:10:39.083Z,76.62
2019-01-30T10:13:08.689Z,79.17
2019-01-30T10:15:39.834Z,77.13
2019-01-30T10:18:09.112Z,75.75
2019-01-30T10:20:39.362Z,74.09
2019-01-30T10:23:08.242Z,73.85
2019-01-30T10:25:37.133Z,74.43
2019-01-30T10:28:15.843Z,69.42
2019-01-30T10:30:39.352Z,69.79
2019-01-30T10:33:08.311Z,68.68
2019-01-30T10:35:37.413Z,65.38
2019-01-30T10:38:06.675Z,65.46
2019-01-30T10:40:35.496Z,64.46
2019-01-30T10:43:05.000Z,63.87
2019-01-30T10:45:33.787Z,61.71
2019-01-30T10:48:02.680Z,61.73
2019-01-30T10:50:34.040Z,60.59
2019-01-30T10:53:02.914Z,60.66
2019-01-30T10:55:34.166Z,59.17
2019-01-30T10:58:05.541Z,57.44
2019-01-30T11:00:41.550Z,59.19
2019-01-30T11:03:10.770Z,59.14
2019-01-30T11:05:40.781Z,59.71
2019-01-30T11:08:11.137Z,60.97
2019-01-30T11:10:40.117Z,60.90
2019-01-30T11:13:09.241Z,61.27
2019-01-30T11:15:38.093Z,62.57
2019-01-30T11:18:09.744Z,63.48
2019-01-30T11:20:38.647Z,63.21
2019-01-30T11:23:07.831Z,62.88
2019-01-30T11:25:42.767Z,60.50
2019-01-30T11:28:11.855Z,57.65
2019-01-30T11:30:40.852Z,58.47
2019-01-30T11:33:09.853Z,58.22
2019-01-30T11:35:38.734Z,56.11
2019-01-30T11:38:09.061Z,57.08
2019-01-30T11:40:38.255Z,57.18
2019-01-30T11:43:07.147Z,57.88
2019-01-30T11:45:38.226Z,57.94
2019-01-30T11:48:07.386Z,56.63
2019-01-30T11:50:36.585Z,57.43
2019-01-30T11:53:05.986Z,54.90
2019-01-30T11:55:35.082Z,55.87
2019-01-30T11:58:04.382Z,55.19
2019-01-30T12:00:36.648Z,55.64
2019-01-30T12:03:05.747Z,55.50
2019-01-30T12:05:34.769Z,56.92
2019-01-30T12:08:03.939Z,56.83
2019-01-30T12:10:32.869Z,56.99
2019-01-30T12:13:01.718Z,56.10
2019-01-30T12:15:30.608Z,55.21
2019-01-30T12:17:59.906Z,56.34
2019-01-30T12:20:28.798Z,57.03
2019-01-30T12:22:57.690Z,58.31
2019-01-30T12:25:26.553Z,58.43
2019-01-30T12:27:55.377Z,58.84
2019-01-30T12:30:28.180Z,58.13
2019-01-30T12:32:57.145Z,58.76
2019-01-30T12:35:26.219Z,59.87
2019-01-30T12:37:55.030Z,59.39
2019-01-30T12:40:25.056Z,60.03
2019-01-30T12:42:54.326Z,60.13
2019-01-30T12:45:29.486Z,60.23
2019-01-30T12:47:58.680Z,61.12
2019-01-30T12:50:27.670Z,59.66
2019-01-30T12:52:56.564Z,59.24
2019-01-30T12:55:25.862Z,59.15
2019-01-30T12:57:54.755Z,59.28
2019-01-30T13:00:35.215Z,60.06
2019-01-30T13:03:04.924Z,59.32
2019-01-30T13:05:34.694Z,57.54
2019-01-30T13:08:03.625Z,58.83
2019-01-30T13:10:32.518Z,60.33
2019-01-30T13:13:01.513Z,61.14
2019-01-30T13:15:30.845Z,61.15
2019-01-30T13:18:00.122Z,60.62
2019-01-30T13:20:28.897Z,60.49
2019-01-30T13:22:57.894Z,60.79
2019-01-30T13:25:29.450Z,61.31
2019-01-30T13:27:58.546Z,60.62
2019-01-30T13:30:30.063Z,60.85
2019-01-30T13:32:59.003Z,59.79
2019-01-30T13:35:29.308Z,59.51
2019-01-30T13:37:58.509Z,60.06
2019-01-30T13:40:32.827Z,60.00
2019-01-30T13:43:01.820Z,60.89
2019-01-30T13:45:31.427Z,61.39
2019-01-30T13:48:00.519Z,62.02
2019-01-30T13:50:30.000Z,62.44
2019-01-30T13:52:59.280Z,62.22
2019-01-30T13:55:28.402Z,62.77
2019-01-30T13:57:57.420Z,62.52
2019-01-30T14:00:29.377Z,62.47
2019-01-30T14:02:58.278Z,61.43
2019-01-30T14:05:27.195Z,61.54
2019-01-30T14:07:56.364Z,61.79
2019-01-30T14:10:27.072Z,62.56
2019-01-30T14:12:55.890Z,62.84
2019-01-30T14:15:27.355Z,63.60
2019-01-30T14:17:56.215Z,63.94
2019-01-30T14:20:25.020Z,64.49
2019-01-30T14:22:54.427Z,65.20
2019-01-30T14:25:23.543Z,65.53
2019-01-30T14:27:52.405Z,66.13
2019-01-30T14:30:30.160Z,66.76
2019-01-30T14:32:59.016Z,67.44
2019-01-30T14:35:29.306Z,67.33
2019-01-30T14:37:58.402Z,66.91
2019-01-30T14:40:27.401Z,66.91
2019-01-30T14:42:56.594Z,66.80
2019-01-30T14:45:25.699Z,66.43
2019-01-30T14:47:54.613Z,67.15
2019-01-30T14:50:28.201Z,67.31
2019-01-30T14:52:57.512Z,67.79
2019-01-30T14:55:26.479Z,68.57
2019-01-30T14:57:55.834Z,68.34
2019-01-30T15:00:30.003Z,69.25
2019-01-30T15:02:59.610Z,70.31
2019-01-30T15:05:29.403Z,71.14
2019-01-30T15:07:58.742Z,71.24
2019-01-30T15:10:29.557Z,70.74
2019-01-30T15:12:59.440Z,71.73
2019-01-30T15:15:30.833Z,71.06
2019-01-30T15:17:59.828Z,71.93
2019-01-30T15:20:31.285Z,72.27
2019-01-30T15:23:00.366Z,72.88
2019-01-30T15:25:29.646Z,73.43
2019-01-30T15:27:58.638Z,73.98
2019-01-30T15:30:39.099Z,73.88
2019-01-30T15:33:08.186Z,73.10
2019-01-30T15:35:38.628Z,73.40
2019-01-30T15:38:09.168Z,74.42
2019-01-30T15:40:38.043Z,74.22
2019-01-30T15:43:07.039Z,73.55
2019-01-30T15:45:35.875Z,73.18
2019-01-30T15:48:05.124Z,73.60
2019-01-30T15:50:36.308Z,73.64
2019-01-30T15:53:07.104Z,73.83
2019-01-30T15:55:35.993Z,73.41
2019-01-30T15:58:07.956Z,74.49
2019-01-30T16:00:39.511Z,74.00
2019-01-30T16:03:08.402Z,74.52
2019-01-30T16:05:44.611Z,74.89
2019-01-30T16:08:08.025Z,75.70
2019-01-30T16:10:36.919Z,76.65
2019-01-30T16:13:06.113Z,77.09
2019-01-30T16:15:41.456Z,77.42
2019-01-30T16:18:10.549Z,77.83
2019-01-30T16:20:39.440Z,78.29
2019-01-30T16:23:08.330Z,78.29
2019-01-30T16:25:37.221Z,78.41
2019-01-30T16:28:06.726Z,79.67
2019-01-30T16:30:35.615Z,79.41
2019-01-30T16:33:05.764Z,80.06
2019-01-30T16:35:34.624Z,80.39
2019-01-30T16:38:03.620Z,80.92
2019-01-30T16:40:32.511Z,81.11
2019-01-30T16:43:01.402Z,81.56
2019-01-30T16:45:31.743Z,82.33
2019-01-30T16:48:00.617Z,83.44
2019-01-30T16:50:29.609Z,84.06
2019-01-30T16:52:58.603Z,84.88
2019-01-30T16:55:27.495Z,84.32
2019-01-30T16:57:56.383Z,84.04
2019-01-30T17:00:35.577Z,83.53
2019-01-30T17:03:06.171Z,83.65
2019-01-30T17:05:35.341Z,84.11
2019-01-30T17:08:04.746Z,84.28
2019-01-30T17:10:33.635Z,84.21
2019-01-30T17:13:02.526Z,85.07
2019-01-30T17:15:33.771Z,85.06
2019-01-30T17:18:02.673Z,86.18
2019-01-30T17:20:34.333Z,86.34
2019-01-30T17:23:03.161Z,86.62
2019-01-30T17:25:32.335Z,86.95
2019-01-30T17:28:01.397Z,87.08
2019-01-30T17:30:38.683Z,87.42
2019-01-30T17:33:07.676Z,87.75
2019-01-30T17:35:37.156Z,87.94
2019-01-30T17:38:06.276Z,88.00
2019-01-30T17:40:35.268Z,88.20
2019-01-30T17:43:04.160Z,88.22
2019-01-30T17:45:33.152Z,88.00
2019-01-30T17:48:02.045Z,88.84
2019-01-30T17:50:31.147Z,89.11
2019-01-30T17:53:00.439Z,89.32
2019-01-30T17:55:29.568Z,90.64
2019-01-30T17:57:58.423Z,90.63
2019-01-30T18:00:32.333Z,90.16
2019-01-30T18:03:01.226Z,90.88
2019-01-30T18:05:30.114Z,92.24
2019-01-30T18:07:59.004Z,92.59
2019-01-30T18:10:27.893Z,92.22
2019-01-30T18:12:56.785Z,91.66
2019-01-30T18:15:25.936Z,89.58
2019-01-30T18:17:54.872Z,90.77
2019-01-30T18:20:23.968Z,90.84
2019-01-30T18:22:53.063Z,91.82
2019-01-30T18:25:22.260Z,93.05
2019-01-30T18:27:51.154Z,92.88
2019-01-30T18:30:21.302Z,92.72
2019-01-30T18:32:50.262Z,93.13
2019-01-30T18:35:19.260Z,93.42
2019-01-30T18:37:48.760Z,93.15
2019-01-30T18:40:23.081Z,92.04
2019-01-30T18:42:52.006Z,92.01
2019-01-30T18:45:25.627Z,90.16
2019-01-30T18:47:55.134Z,89.32
2019-01-30T18:50:28.373Z,88.94
2019-01-30T18:52:57.872Z,87.96
2019-01-30T18:55:26.765Z,87.54
2019-01-30T18:57:56.065Z,87.06
2019-01-30T19:00:31.098Z,86.59
2019-01-30T19:03:01.355Z,86.87
2019-01-30T19:05:31.339Z,87.17
2019-01-30T19:08:00.329Z,88.17
2019-01-30T19:10:29.218Z,88.39
2019-01-30T19:12:58.107Z,88.47
2019-01-30T19:15:28.219Z,89.16
2019-01-30T19:17:57.015Z,89.78
2019-01-30T19:20:37.681Z,90.31
2019-01-30T19:23:07.171Z,91.11
2019-01-30T19:25:36.382Z,92.45
2019-01-30T19:28:06.637Z,93.06
2019-01-30T19:30:35.504Z,93.81
2019-01-30T19:33:06.778Z,93.91
2019-01-30T19:35:35.836Z,94.33
2019-01-30T19:38:05.545Z,94.42
2019-01-30T19:40:34.535Z,94.92
2019-01-30T19:43:03.535Z,94.12
2019-01-30T19:45:32.421Z,94.10
2019-01-30T19:48:01.310Z,93.27
2019-01-30T19:50:31.442Z,92.53
2019-01-30T19:53:01.254Z,93.52
2019-01-30T19:55:30.131Z,92.42
2019-01-30T19:57:59.285Z,92.70
2019-01-30T20:00:33.649Z,92.98
2019-01-30T20:03:05.442Z,92.36
2019-01-30T20:05:34.294Z,92.89
2019-01-30T20:08:03.185Z,92.58
2019-01-30T20:10:36.741Z,91.96
2019-01-30T20:13:06.090Z,92.78
2019-01-30T20:15:36.518Z,92.25
2019-01-30T20:18:05.857Z,91.90
2019-01-30T20:20:34.708Z,91.43
2019-01-30T20:23:03.593Z,92.20
2019-01-30T20:25:40.470Z,91.11
2019-01-30T20:28:09.467Z,92.72
2019-01-30T20:30:38.644Z,92.77
2019-01-30T20:33:07.551Z,94.26
2019-01-30T20:35:36.440Z,93.61
2019-01-30T20:38:05.921Z,92.44
2019-01-30T20:40:34.839Z,92.22
2019-01-30T20:43:03.832Z,91.82
2019-01-30T20:45:34.012Z,90.75
2019-01-30T20:48:03.350Z,91.33
2019-01-30T20:50:32.629Z,90.25
2019-01-30T20:53:01.542Z,88.99
2019-01-30T20:55:30.432Z,88.75
2019-01-30T20:57:59.323Z,89.53
2019-01-30T21:00:35.144Z,90.50
2019-01-30T21:03:04.373Z,91.86
2019-01-30T21:05:33.265Z,92.79
2019-01-30T21:08:02.460Z,93.04
2019-01-30T21:10:36.373Z,93.67
2019-01-30T21:13:07.103Z,94.93
2019-01-30T21:15:35.892Z,93.51
2019-01-30T21:18:05.322Z,91.82
2019-01-30T21:20:34.199Z,93.12
2019-01-30T21:23:03.073Z,93.62
2019-01-30T21:25:32.790Z,95.81
2019-01-30T21:28:01.581Z,95.12
2019-01-30T21:30:35.605Z,93.51
2019-01-30T21:33:05.188Z,91.59
2019-01-30T21:35:33.975Z,91.58
2019-01-30T21:38:02.967Z,93.16
2019-01-30T21:40:31.859Z,93.77
2019-01-30T21:43:00.751Z,92.81
2019-01-30T21:45:29.640Z,92.57
2019-01-30T21:47:58.528Z,92.26
2019-01-30T21:50:27.418Z,92.03
2019-01-30T21:52:56.310Z,92.01
2019-01-30T21:55:26.112Z,93.42
2019-01-30T21:57:54.911Z,92.70
2019-01-30T22:00:28.485Z,91.40
2019-01-30T22:02:57.502Z,91.74
2019-01-30T22:05:26.986Z,92.72
2019-01-30T22:08:01.069Z,93.28
2019-01-30T22:10:28.257Z,93.69
2019-01-30T22:12:57.376Z,94.60
2019-01-30T22:15:26.254Z,95.82
2019-01-30T22:17:55.247Z,97.11
2019-01-30T22:20:26.107Z,96.08
2019-01-30T22:22:55.177Z,97.12
2019-01-30T22:25:26.621Z,95.77
2019-01-30T22:27:55.421Z,94.98
2019-01-30T22:30:26.594Z,93.97
2019-01-30T22:32:56.168Z,93.80
2019-01-30T22:35:25.158Z,93.61
2019-01-30T22:37:56.201Z,93.66
2019-01-30T22:40:25.327Z,93.37
2019-01-30T22:42:54.321Z,93.68
2019-01-30T22:45:23.689Z,93.54
2019-01-30T22:47:52.697Z,94.81
2019-01-30T22:50:21.882Z,94.95
2019-01-30T22:52:51.079Z,94.23
2019-01-30T22:55:22.528Z,94.10
2019-01-30T22:57:51.859Z,93.98
2019-01-30T23:00:58.094Z,94.75
2019-01-30T23:03:32.823Z,95.28
2019-01-30T23:06:30.706Z,96.90
2019-01-30T23:09:18.742Z,95.75
2019-01-30T23:12:05.231Z,95.29
2019-01-30T23:14:36.206Z,94.66
2019-01-30T23:17:16.471Z,96.36
2019-01-30T23:19:48.121Z,97.91
2019-01-30T23:22:19.926Z,98.95
2019-01-30T23:24:57.215Z,100.00
2019-01-30T23:27:29.277Z,100.00
2019-01-30T23:30:30.016Z,100.00
2019-01-30T23:33:28.908Z,100.00
2019-01-30T23:36:09.473Z,100.00
2019-01-30T23:39:00.787Z,100.00
2019-01-30T23:41:35.309Z,100.00
2019-01-30T23:44:09.909Z,100.00
2019-01-30T23:46:50.192Z,100.00
2019-01-30T23:49:38.764Z,100.00
2019-01-30T23:52:22.686Z,100.00
2019-01-30T23:55:00.692Z,100.00
2019-01-30T23:57:44.736Z,100.00
